sensor_id;sensor_type;location;lat;lon;timestamp;pressure;altitude;pressure_sealevel;temperature;humidity
15050;BME280;7622;42.724;23.250;2023-12-14T00:00:41;93605.88;;;6.97;100.00
15050;BME280;7622;42.724;23.250;2023-12-14T00:03:08;93553.91;;;6.74;100.00
15050;BME280;7622;42.724;23.250;2023-12-14T00:05:35;93604.84;;;6.90;100.00
15050;BME280;7622;42.724;23.250;2023-12-14T00:08:01;93592.03;;;6.98;100.00
15050;BME280;7622;42.724;23.250;2023-12-14T00:10:28;93602.03;;;6.83;100.00
15050;BME280;7622;42.724;23.250;2023-12-14T00:12:55;93608.16;;;6.82;100.00
15050;BME280;7622;42.724;23.250;2023-12-14T00:15:21;93615.09;;;6.99;100.00
15050;BME280;7622;42.724;23.250;2023-12-14T00:17:50;93608.38;;;6.89;100.00
15050;BME280;7622;42.724;23.250;2023-12-14T00:20:16;93622.00;;;6.81;100.00
15050;BME280;7622;42.724;23.250;2023-12-14T00:22:43;93554.19;;;6.71;100.00
15050;BME280;7622;42.724;23.250;2023-12-14T00:25:10;93624.75;;;6.80;100.00
15050;BME280;7622;42.724;23.250;2023-12-14T00:27:36;93584.78;;;6.84;100.00
15050;BME280;7622;42.724;23.250;2023-12-14T00:30:04;93610.22;;;6.79;100.00
15050;BME280;7622;42.724;23.250;2023-12-14T00:32:31;93626.59;;;6.87;100.00
15050;BME280;7622;42.724;23.250;2023-12-14T00:34:59;93602.69;;;6.85;100.00
15050;BME280;7622;42.724;23.250;2023-12-14T00:37:26;93611.84;;;6.80;100.00
15050;BME280;7622;42.724;23.250;2023-12-14T00:39:53;93626.72;;;6.68;100.00
15050;BME280;7622;42.724;23.250;2023-12-14T00:42:20;93585.72;;;6.47;100.00
15050;BME280;7622;42.724;23.250;2023-12-14T00:44:46;93611.28;;;6.58;100.00
15050;BME280;7622;42.724;23.250;2023-12-14T00:47:13;93620.75;;;6.67;100.00
15050;BME280;7622;42.724;23.250;2023-12-14T00:49:40;93603.88;;;6.73;100.00
15050;BME280;7622;42.724;23.250;2023-12-14T00:52:08;93622.38;;;6.68;100.00
15050;BME280;7622;42.724;23.250;2023-12-14T00:54:35;93612.66;;;6.62;100.00
15050;BME280;7622;42.724;23.250;2023-12-14T00:57:03;93619.44;;;6.63;100.00
15050;BME280;7622;42.724;23.250;2023-12-14T00:59:32;93621.84;;;6.65;100.00
15050;BME280;7622;42.724;23.250;2023-12-14T01:02:01;93633.28;;;6.62;100.00
15050;BME280;7622;42.724;23.250;2023-12-14T01:04:28;93615.72;;;6.66;100.00
15050;BME280;7622;42.724;23.250;2023-12-14T01:06:54;93610.78;;;6.55;100.00
15050;BME280;7622;42.724;23.250;2023-12-14T01:09:22;93605.00;;;6.70;100.00
15050;BME280;7622;42.724;23.250;2023-12-14T01:11:49;93613.97;;;6.66;100.00
15050;BME280;7622;42.724;23.250;2023-12-14T01:14:16;93597.41;;;6.69;100.00
15050;BME280;7622;42.724;23.250;2023-12-14T01:16:43;93548.25;;;6.43;100.00
15050;BME280;7622;42.724;23.250;2023-12-14T01:19:09;93617.72;;;6.72;100.00
15050;BME280;7622;42.724;23.250;2023-12-14T01:21:36;93613.38;;;6.72;100.00
15050;BME280;7622;42.724;23.250;2023-12-14T01:24:03;93577.44;;;6.44;100.00
15050;BME280;7622;42.724;23.250;2023-12-14T01:26:31;93601.19;;;6.47;100.00
15050;BME280;7622;42.724;23.250;2023-12-14T01:28:58;93613.63;;;6.34;100.00
15050;BME280;7622;42.724;23.250;2023-12-14T01:31:24;93589.13;;;6.65;100.00
15050;BME280;7622;42.724;23.250;2023-12-14T01:33:51;93597.66;;;6.66;100.00
15050;BME280;7622;42.724;23.250;2023-12-14T01:36:21;93612.06;;;6.68;100.00
15050;BME280;7622;42.724;23.250;2023-12-14T01:38:49;93591.34;;;6.60;100.00
15050;BME280;7622;42.724;23.250;2023-12-14T01:41:15;93598.13;;;6.79;100.00
15050;BME280;7622;42.724;23.250;2023-12-14T01:43:44;93593.50;;;6.83;100.00
15050;BME280;7622;42.724;23.250;2023-12-14T01:46:11;93606.31;;;6.92;100.00
15050;BME280;7622;42.724;23.250;2023-12-14T01:48:38;93576.66;;;6.79;100.00
15050;BME280;7622;42.724;23.250;2023-12-14T01:51:05;93596.72;;;6.85;100.00
15050;BME280;7622;42.724;23.250;2023-12-14T01:53:32;93591.81;;;6.91;100.00
15050;BME280;7622;42.724;23.250;2023-12-14T01:55:58;93498.31;;;6.26;100.00
15050;BME280;7622;42.724;23.250;2023-12-14T01:58:27;93601.44;;;6.71;100.00
15050;BME280;7622;42.724;23.250;2023-12-14T02:01:03;93579.03;;;6.54;100.00
15050;BME280;7622;42.724;23.250;2023-12-14T02:03:33;93574.22;;;6.42;100.00
15050;BME280;7622;42.724;23.250;2023-12-14T02:05:59;93579.09;;;6.62;100.00
15050;BME280;7622;42.724;23.250;2023-12-14T02:08:27;93558.06;;;6.57;100.00
15050;BME280;7622;42.724;23.250;2023-12-14T02:10:54;93590.47;;;6.69;100.00
15050;BME280;7622;42.724;23.250;2023-12-14T02:13:21;93564.59;;;6.61;100.00
15050;BME280;7622;42.724;23.250;2023-12-14T02:15:48;93588.84;;;6.86;100.00
15050;BME280;7622;42.724;23.250;2023-12-14T02:18:16;93569.53;;;6.90;100.00
15050;BME280;7622;42.724;23.250;2023-12-14T02:20:43;93590.75;;;7.02;100.00
15050;BME280;7622;42.724;23.250;2023-12-14T02:23:11;93559.41;;;6.97;100.00
15050;BME280;7622;42.724;23.250;2023-12-14T02:25:37;93582.19;;;7.01;100.00
15050;BME280;7622;42.724;23.250;2023-12-14T02:28:04;93564.19;;;6.92;100.00
15050;BME280;7622;42.724;23.250;2023-12-14T02:30:31;93569.56;;;6.98;100.00
15050;BME280;7622;42.724;23.250;2023-12-14T02:32:58;93583.88;;;6.93;100.00
15050;BME280;7622;42.724;23.250;2023-12-14T02:35:24;93577.09;;;7.09;100.00
15050;BME280;7622;42.724;23.250;2023-12-14T02:37:51;93556.34;;;7.19;100.00
15050;BME280;7622;42.724;23.250;2023-12-14T02:40:19;93582.72;;;7.05;100.00
15050;BME280;7622;42.724;23.250;2023-12-14T02:42:46;93567.66;;;7.00;100.00
15050;BME280;7622;42.724;23.250;2023-12-14T02:45:15;93586.53;;;7.01;100.00
15050;BME280;7622;42.724;23.250;2023-12-14T02:47:44;93543.47;;;7.01;100.00
15050;BME280;7622;42.724;23.250;2023-12-14T02:50:13;93560.44;;;7.04;100.00
15050;BME280;7622;42.724;23.250;2023-12-14T02:52:40;93606.75;;;7.05;100.00
15050;BME280;7622;42.724;23.250;2023-12-14T02:55:07;93588.66;;;7.05;100.00
15050;BME280;7622;42.724;23.250;2023-12-14T02:57:35;93555.50;;;7.10;100.00
15050;BME280;7622;42.724;23.250;2023-12-14T03:00:02;93566.91;;;7.08;100.00
15050;BME280;7622;42.724;23.250;2023-12-14T03:02:29;93603.50;;;7.21;100.00
15050;BME280;7622;42.724;23.250;2023-12-14T03:04:56;93582.84;;;7.21;100.00
15050;BME280;7622;42.724;23.250;2023-12-14T03:07:22;93556.72;;;7.06;100.00
15050;BME280;7622;42.724;23.250;2023-12-14T03:09:49;93547.75;;;7.36;100.00
15050;BME280;7622;42.724;23.250;2023-12-14T03:12:16;93571.72;;;7.46;100.00
15050;BME280;7622;42.724;23.250;2023-12-14T03:14:44;93550.84;;;7.66;100.00
15050;BME280;7622;42.724;23.250;2023-12-14T03:17:11;93548.16;;;7.49;100.00
15050;BME280;7622;42.724;23.250;2023-12-14T03:19:39;93559.63;;;7.73;100.00
15050;BME280;7622;42.724;23.250;2023-12-14T03:22:06;93549.84;;;7.59;100.00
15050;BME280;7622;42.724;23.250;2023-12-14T03:24:33;93512.63;;;7.43;100.00
15050;BME280;7622;42.724;23.250;2023-12-14T03:27:00;93566.41;;;7.74;100.00
15050;BME280;7622;42.724;23.250;2023-12-14T03:29:27;93549.31;;;7.81;100.00
15050;BME280;7622;42.724;23.250;2023-12-14T03:31:56;93544.16;;;7.81;100.00
15050;BME280;7622;42.724;23.250;2023-12-14T03:34:22;93548.91;;;7.68;100.00
15050;BME280;7622;42.724;23.250;2023-12-14T03:36:49;93537.78;;;7.75;100.00
15050;BME280;7622;42.724;23.250;2023-12-14T03:39:16;93541.28;;;7.92;100.00
15050;BME280;7622;42.724;23.250;2023-12-14T03:41:43;93504.56;;;7.88;100.00
15050;BME280;7622;42.724;23.250;2023-12-14T03:44:10;93524.91;;;7.83;100.00
15050;BME280;7622;42.724;23.250;2023-12-14T03:46:36;93543.19;;;7.90;100.00
15050;BME280;7622;42.724;23.250;2023-12-14T03:49:05;93520.22;;;7.79;100.00
15050;BME280;7622;42.724;23.250;2023-12-14T03:51:31;93531.47;;;7.70;100.00
15050;BME280;7622;42.724;23.250;2023-12-14T03:53:58;93513.13;;;7.81;100.00
15050;BME280;7622;42.724;23.250;2023-12-14T03:56:25;93509.16;;;7.95;100.00
15050;BME280;7622;42.724;23.250;2023-12-14T03:58:51;93533.22;;;7.95;100.00
15050;BME280;7622;42.724;23.250;2023-12-14T04:01:19;93531.81;;;7.75;100.00
15050;BME280;7622;42.724;23.250;2023-12-14T04:03:46;93473.66;;;7.71;100.00
15050;BME280;7622;42.724;23.250;2023-12-14T04:06:14;93524.19;;;7.65;100.00
15050;BME280;7622;42.724;23.250;2023-12-14T04:08:41;93514.06;;;7.72;100.00
15050;BME280;7622;42.724;23.250;2023-12-14T04:11:08;93552.66;;;7.73;100.00
15050;BME280;7622;42.724;23.250;2023-12-14T04:13:35;93498.66;;;7.62;100.00
15050;BME280;7622;42.724;23.250;2023-12-14T04:16:02;93557.31;;;7.70;100.00
15050;BME280;7622;42.724;23.250;2023-12-14T04:18:29;93555.69;;;7.69;100.00
15050;BME280;7622;42.724;23.250;2023-12-14T04:20:56;93514.44;;;7.85;100.00
15050;BME280;7622;42.724;23.250;2023-12-14T04:23:24;93458.94;;;7.29;100.00
15050;BME280;7622;42.724;23.250;2023-12-14T04:25:52;93506.56;;;7.61;100.00
15050;BME280;7622;42.724;23.250;2023-12-14T04:28:19;93558.63;;;7.22;100.00
15050;BME280;7622;42.724;23.250;2023-12-14T04:30:44;93510.59;;;7.29;100.00
15050;BME280;7622;42.724;23.250;2023-12-14T04:33:11;93555.91;;;7.24;100.00
15050;BME280;7622;42.724;23.250;2023-12-14T04:35:38;93547.03;;;7.26;100.00
15050;BME280;7622;42.724;23.250;2023-12-14T04:38:04;93531.78;;;7.15;100.00
15050;BME280;7622;42.724;23.250;2023-12-14T04:40:33;93539.34;;;7.08;100.00
15050;BME280;7622;42.724;23.250;2023-12-14T04:42:59;93534.69;;;7.12;100.00
15050;BME280;7622;42.724;23.250;2023-12-14T04:45:26;93531.66;;;6.99;100.00
15050;BME280;7622;42.724;23.250;2023-12-14T04:47:53;93532.13;;;6.94;100.00
15050;BME280;7622;42.724;23.250;2023-12-14T04:50:19;93538.44;;;7.00;100.00
15050;BME280;7622;42.724;23.250;2023-12-14T04:52:46;93536.47;;;7.11;100.00
15050;BME280;7622;42.724;23.250;2023-12-14T04:55:13;93551.44;;;7.08;100.00
15050;BME280;7622;42.724;23.250;2023-12-14T04:57:41;93495.09;;;6.86;100.00
15050;BME280;7622;42.724;23.250;2023-12-14T05:00:09;93548.06;;;6.90;100.00
15050;BME280;7622;42.724;23.250;2023-12-14T05:02:36;93554.63;;;6.84;100.00
15050;BME280;7622;42.724;23.250;2023-12-14T05:05:03;93553.41;;;6.70;100.00
15050;BME280;7622;42.724;23.250;2023-12-14T05:07:30;93528.31;;;6.81;100.00
15050;BME280;7622;42.724;23.250;2023-12-14T05:09:56;93531.66;;;6.99;100.00
15050;BME280;7622;42.724;23.250;2023-12-14T05:12:23;93516.19;;;6.99;100.00
15050;BME280;7622;42.724;23.250;2023-12-14T05:14:52;93538.03;;;6.87;100.00
15050;BME280;7622;42.724;23.250;2023-12-14T05:17:18;93534.34;;;6.71;100.00
15050;BME280;7622;42.724;23.250;2023-12-14T05:19:45;93547.91;;;6.73;100.00
15050;BME280;7622;42.724;23.250;2023-12-14T05:22:12;93551.25;;;6.48;100.00
15050;BME280;7622;42.724;23.250;2023-12-14T05:24:39;93530.66;;;6.39;100.00
15050;BME280;7622;42.724;23.250;2023-12-14T05:27:06;93544.16;;;6.50;100.00
15050;BME280;7622;42.724;23.250;2023-12-14T05:29:32;93567.16;;;6.61;100.00
15050;BME280;7622;42.724;23.250;2023-12-14T05:32:01;93541.66;;;6.76;100.00
15050;BME280;7622;42.724;23.250;2023-12-14T05:34:28;93557.03;;;6.50;100.00
15050;BME280;7622;42.724;23.250;2023-12-14T05:36:54;93554.84;;;6.55;100.00
15050;BME280;7622;42.724;23.250;2023-12-14T05:39:21;93593.63;;;6.63;100.00
15050;BME280;7622;42.724;23.250;2023-12-14T05:41:48;93503.78;;;6.41;100.00
15050;BME280;7622;42.724;23.250;2023-12-14T05:44:15;93577.13;;;6.56;100.00
15050;BME280;7622;42.724;23.250;2023-12-14T05:46:42;93544.38;;;6.75;100.00
15050;BME280;7622;42.724;23.250;2023-12-14T05:49:10;93579.97;;;6.71;100.00
15050;BME280;7622;42.724;23.250;2023-12-14T05:51:37;93561.63;;;6.74;100.00
15050;BME280;7622;42.724;23.250;2023-12-14T05:54:05;93561.50;;;6.76;100.00
15050;BME280;7622;42.724;23.250;2023-12-14T05:56:32;93575.34;;;6.92;100.00
15050;BME280;7622;42.724;23.250;2023-12-14T05:58:58;93526.50;;;6.99;100.00
15050;BME280;7622;42.724;23.250;2023-12-14T06:01:25;93585.66;;;7.10;100.00
15050;BME280;7622;42.724;23.250;2023-12-14T06:03:52;93562.16;;;7.21;100.00
15050;BME280;7622;42.724;23.250;2023-12-14T06:06:20;93598.25;;;7.31;100.00
15050;BME280;7622;42.724;23.250;2023-12-14T06:08:48;93561.53;;;7.45;100.00
15050;BME280;7622;42.724;23.250;2023-12-14T06:11:14;93581.13;;;7.56;100.00
15050;BME280;7622;42.724;23.250;2023-12-14T06:13:41;93587.31;;;7.63;100.00
15050;BME280;7622;42.724;23.250;2023-12-14T06:16:08;93561.81;;;7.68;100.00
15050;BME280;7622;42.724;23.250;2023-12-14T06:18:39;93578.25;;;7.59;100.00
15050;BME280;7622;42.724;23.250;2023-12-14T06:21:07;93580.84;;;7.59;100.00
15050;BME280;7622;42.724;23.250;2023-12-14T06:23:36;93587.28;;;7.88;100.00
15050;BME280;7622;42.724;23.250;2023-12-14T06:26:03;93587.63;;;7.85;100.00
15050;BME280;7622;42.724;23.250;2023-12-14T06:28:30;93597.53;;;7.98;100.00
15050;BME280;7622;42.724;23.250;2023-12-14T06:30:57;93601.03;;;7.89;100.00
15050;BME280;7622;42.724;23.250;2023-12-14T06:33:23;93585.91;;;7.94;100.00
15050;BME280;7622;42.724;23.250;2023-12-14T06:35:50;93624.09;;;7.82;100.00
15050;BME280;7622;42.724;23.250;2023-12-14T06:38:17;93593.31;;;7.97;100.00
15050;BME280;7622;42.724;23.250;2023-12-14T06:40:45;93608.88;;;8.05;100.00
15050;BME280;7622;42.724;23.250;2023-12-14T06:43:12;93611.31;;;8.33;100.00
15050;BME280;7622;42.724;23.250;2023-12-14T06:45:39;93615.59;;;8.24;100.00
15050;BME280;7622;42.724;23.250;2023-12-14T06:48:05;93616.06;;;8.19;100.00
15050;BME280;7622;42.724;23.250;2023-12-14T06:50:32;93618.88;;;8.00;100.00
15050;BME280;7622;42.724;23.250;2023-12-14T06:52:59;93602.28;;;8.11;100.00
15050;BME280;7622;42.724;23.250;2023-12-14T06:55:25;93526.41;;;7.86;100.00
15050;BME280;7622;42.724;23.250;2023-12-14T06:57:53;93588.16;;;8.31;100.00
15050;BME280;7622;42.724;23.250;2023-12-14T07:00:20;93610.50;;;8.32;100.00
15050;BME280;7622;42.724;23.250;2023-12-14T07:02:47;93624.75;;;8.36;100.00
15050;BME280;7622;42.724;23.250;2023-12-14T07:05:14;93613.28;;;8.47;100.00
15050;BME280;7622;42.724;23.250;2023-12-14T07:07:41;93607.63;;;8.51;100.00
15050;BME280;7622;42.724;23.250;2023-12-14T07:10:08;93598.81;;;8.70;100.00
15050;BME280;7622;42.724;23.250;2023-12-14T07:12:36;93620.50;;;8.77;100.00
15050;BME280;7622;42.724;23.250;2023-12-14T07:15:07;93633.81;;;8.90;100.00
15050;BME280;7622;42.724;23.250;2023-12-14T07:17:37;93647.72;;;8.89;100.00
15050;BME280;7622;42.724;23.250;2023-12-14T07:20:07;93631.22;;;8.90;100.00
15050;BME280;7622;42.724;23.250;2023-12-14T07:22:36;93639.59;;;8.76;100.00
15050;BME280;7622;42.724;23.250;2023-12-14T07:25:06;93645.72;;;8.67;100.00
15050;BME280;7622;42.724;23.250;2023-12-14T07:27:34;93670.31;;;8.63;100.00
15050;BME280;7622;42.724;23.250;2023-12-14T07:30:01;93626.38;;;8.95;100.00
15050;BME280;7622;42.724;23.250;2023-12-14T07:32:29;93641.88;;;8.87;100.00
15050;BME280;7622;42.724;23.250;2023-12-14T07:34:56;93644.09;;;8.66;100.00
15050;BME280;7622;42.724;23.250;2023-12-14T07:37:23;93624.69;;;8.70;100.00
15050;BME280;7622;42.724;23.250;2023-12-14T07:39:49;93638.47;;;8.87;100.00
15050;BME280;7622;42.724;23.250;2023-12-14T07:42:17;93666.88;;;9.04;100.00
15050;BME280;7622;42.724;23.250;2023-12-14T07:44:45;93651.50;;;9.19;100.00
15050;BME280;7622;42.724;23.250;2023-12-14T07:47:12;93660.09;;;9.28;100.00
15050;BME280;7622;42.724;23.250;2023-12-14T07:49:40;93653.78;;;9.38;100.00
15050;BME280;7622;42.724;23.250;2023-12-14T07:52:07;93656.88;;;9.50;100.00
15050;BME280;7622;42.724;23.250;2023-12-14T07:54:35;93659.13;;;9.61;100.00
15050;BME280;7622;42.724;23.250;2023-12-14T07:57:02;93641.31;;;9.58;100.00
15050;BME280;7622;42.724;23.250;2023-12-14T07:59:28;93657.22;;;9.47;100.00
15050;BME280;7622;42.724;23.250;2023-12-14T08:01:55;93644.88;;;9.65;100.00
15050;BME280;7622;42.724;23.250;2023-12-14T08:04:22;93638.38;;;9.94;100.00
15050;BME280;7622;42.724;23.250;2023-12-14T08:06:50;93672.88;;;10.26;100.00
15050;BME280;7622;42.724;23.250;2023-12-14T08:09:17;93673.69;;;10.19;100.00
15050;BME280;7622;42.724;23.250;2023-12-14T08:11:44;93678.56;;;10.30;100.00
15050;BME280;7622;42.724;23.250;2023-12-14T08:14:11;93677.59;;;10.23;100.00
15050;BME280;7622;42.724;23.250;2023-12-14T08:16:37;93589.91;;;9.86;100.00
15050;BME280;7622;42.724;23.250;2023-12-14T08:19:04;93674.66;;;10.18;100.00
15050;BME280;7622;42.724;23.250;2023-12-14T08:21:31;93639.34;;;9.76;100.00
15050;BME280;7622;42.724;23.250;2023-12-14T08:23:59;93647.41;;;10.06;100.00
15050;BME280;7622;42.724;23.250;2023-12-14T08:26:25;93662.03;;;10.23;100.00
15050;BME280;7622;42.724;23.250;2023-12-14T08:28:52;93671.00;;;10.51;100.00
15050;BME280;7622;42.724;23.250;2023-12-14T08:31:19;93670.28;;;10.74;100.00
15050;BME280;7622;42.724;23.250;2023-12-14T08:33:46;93663.47;;;10.73;100.00
15050;BME280;7622;42.724;23.250;2023-12-14T08:36:15;93675.16;;;10.77;100.00
15050;BME280;7622;42.724;23.250;2023-12-14T08:38:42;93649.69;;;11.03;100.00
15050;BME280;7622;42.724;23.250;2023-12-14T08:41:12;93668.59;;;10.89;100.00
15050;BME280;7622;42.724;23.250;2023-12-14T08:43:38;93681.19;;;11.00;100.00
15050;BME280;7622;42.724;23.250;2023-12-14T08:46:05;93678.38;;;10.79;100.00
15050;BME280;7622;42.724;23.250;2023-12-14T08:48:32;93666.38;;;10.78;100.00
15050;BME280;7622;42.724;23.250;2023-12-14T08:51:01;93676.47;;;11.03;100.00
15050;BME280;7622;42.724;23.250;2023-12-14T08:53:27;93675.19;;;10.99;100.00
15050;BME280;7622;42.724;23.250;2023-12-14T08:55:55;93693.41;;;11.53;100.00
15050;BME280;7622;42.724;23.250;2023-12-14T08:58:23;93691.75;;;11.83;100.00
15050;BME280;7622;42.724;23.250;2023-12-14T09:00:50;93679.09;;;11.80;100.00
15050;BME280;7622;42.724;23.250;2023-12-14T09:03:18;93707.16;;;12.07;100.00
15050;BME280;7622;42.724;23.250;2023-12-14T09:05:44;93692.88;;;12.03;100.00
15050;BME280;7622;42.724;23.250;2023-12-14T09:08:11;93679.78;;;12.11;100.00
15050;BME280;7622;42.724;23.250;2023-12-14T09:10:38;93679.41;;;12.37;100.00
15050;BME280;7622;42.724;23.250;2023-12-14T09:13:05;93656.47;;;12.18;100.00
15050;BME280;7622;42.724;23.250;2023-12-14T09:15:33;93672.03;;;12.41;100.00
15050;BME280;7622;42.724;23.250;2023-12-14T09:18:00;93667.16;;;12.38;100.00
15050;BME280;7622;42.724;23.250;2023-12-14T09:20:27;93672.66;;;12.28;100.00
15050;BME280;7622;42.724;23.250;2023-12-14T09:22:54;93679.19;;;12.24;100.00
15050;BME280;7622;42.724;23.250;2023-12-14T09:25:20;93671.78;;;11.98;100.00
15050;BME280;7622;42.724;23.250;2023-12-14T09:27:47;93679.31;;;11.93;100.00
15050;BME280;7622;42.724;23.250;2023-12-14T09:30:14;93688.56;;;11.96;100.00
15050;BME280;7622;42.724;23.250;2023-12-14T09:32:44;93699.22;;;11.86;100.00
15050;BME280;7622;42.724;23.250;2023-12-14T09:35:10;93709.69;;;11.70;100.00
15050;BME280;7622;42.724;23.250;2023-12-14T09:37:37;93711.53;;;11.38;100.00
15050;BME280;7622;42.724;23.250;2023-12-14T09:40:05;93705.44;;;10.92;100.00
15050;BME280;7622;42.724;23.250;2023-12-14T09:42:37;93700.03;;;11.02;100.00
15050;BME280;7622;42.724;23.250;2023-12-14T09:45:06;93691.69;;;10.84;100.00
15050;BME280;7622;42.724;23.250;2023-12-14T09:47:34;93704.41;;;11.01;100.00
15050;BME280;7622;42.724;23.250;2023-12-14T09:50:02;93701.97;;;11.00;100.00
15050;BME280;7622;42.724;23.250;2023-12-14T09:52:30;93680.00;;;10.80;100.00
15050;BME280;7622;42.724;23.250;2023-12-14T09:54:58;93689.56;;;11.18;100.00
15050;BME280;7622;42.724;23.250;2023-12-14T09:57:27;93695.25;;;11.44;100.00
15050;BME280;7622;42.724;23.250;2023-12-14T09:59:54;93709.84;;;11.76;100.00
15050;BME280;7622;42.724;23.250;2023-12-14T10:02:25;93705.06;;;11.57;100.00
15050;BME280;7622;42.724;23.250;2023-12-14T10:04:52;93705.31;;;11.70;100.00
15050;BME280;7622;42.724;23.250;2023-12-14T10:07:20;93682.31;;;11.59;100.00
15050;BME280;7622;42.724;23.250;2023-12-14T10:09:47;93615.88;;;11.34;100.00
15050;BME280;7622;42.724;23.250;2023-12-14T10:12:15;93699.22;;;11.86;100.00
15050;BME280;7622;42.724;23.250;2023-12-14T10:14:42;93702.84;;;12.00;100.00
15050;BME280;7622;42.724;23.250;2023-12-14T10:17:17;93698.09;;;12.18;100.00
15050;BME280;7622;42.724;23.250;2023-12-14T10:19:45;93704.50;;;12.15;100.00
15050;BME280;7622;42.724;23.250;2023-12-14T10:22:13;93701.94;;;12.30;100.00
15050;BME280;7622;42.724;23.250;2023-12-14T10:24:43;93694.13;;;12.30;100.00
15050;BME280;7622;42.724;23.250;2023-12-14T10:27:11;93697.34;;;12.47;100.00
15050;BME280;7622;42.724;23.250;2023-12-14T10:29:38;93690.53;;;12.46;100.00
15050;BME280;7622;42.724;23.250;2023-12-14T10:32:06;93695.38;;;12.49;100.00
15050;BME280;7622;42.724;23.250;2023-12-14T10:34:34;93705.25;;;12.39;100.00
15050;BME280;7622;42.724;23.250;2023-12-14T10:37:01;93706.72;;;12.18;100.00
15050;BME280;7622;42.724;23.250;2023-12-14T10:39:31;93694.00;;;11.86;100.00
15050;BME280;7622;42.724;23.250;2023-12-14T10:42:02;93712.66;;;11.67;100.00
15050;BME280;7622;42.724;23.250;2023-12-14T10:44:30;93711.81;;;11.74;100.00
15050;BME280;7622;42.724;23.250;2023-12-14T10:46:59;93719.63;;;11.43;100.00
15050;BME280;7622;42.724;23.250;2023-12-14T10:49:28;93704.47;;;11.24;100.00
15050;BME280;7622;42.724;23.250;2023-12-14T10:51:57;93728.91;;;11.07;100.00
15050;BME280;7622;42.724;23.250;2023-12-14T10:54:26;93737.03;;;11.12;100.00
15050;BME280;7622;42.724;23.250;2023-12-14T10:56:54;93730.06;;;11.04;100.00
15050;BME280;7622;42.724;23.250;2023-12-14T10:59:23;93730.00;;;10.82;100.00
15050;BME280;7622;42.724;23.250;2023-12-14T11:01:51;93746.38;;;10.82;100.00
15050;BME280;7622;42.724;23.250;2023-12-14T11:04:19;93742.56;;;10.54;100.00
15050;BME280;7622;42.724;23.250;2023-12-14T11:06:47;93749.09;;;10.50;100.00
15050;BME280;7622;42.724;23.250;2023-12-14T11:09:18;93753.78;;;10.38;100.00
15050;BME280;7622;42.724;23.250;2023-12-14T11:11:55;93757.38;;;10.29;100.00
15050;BME280;7622;42.724;23.250;2023-12-14T11:14:24;93768.09;;;10.18;100.00
15050;BME280;7622;42.724;23.250;2023-12-14T11:16:54;93782.97;;;10.08;100.00
15050;BME280;7622;42.724;23.250;2023-12-14T11:19:28;93779.41;;;10.01;100.00
15050;BME280;7622;42.724;23.250;2023-12-14T11:22:12;93777.13;;;9.81;100.00
15050;BME280;7622;42.724;23.250;2023-12-14T11:24:41;93790.72;;;9.83;100.00
15050;BME280;7622;42.724;23.250;2023-12-14T11:27:09;93790.72;;;9.67;100.00
15050;BME280;7622;42.724;23.250;2023-12-14T11:29:37;93813.06;;;9.68;100.00
15050;BME280;7622;42.724;23.250;2023-12-14T11:32:07;93812.09;;;9.69;100.00
15050;BME280;7622;42.724;23.250;2023-12-14T11:34:33;93815.66;;;9.60;100.00
15050;BME280;7622;42.724;23.250;2023-12-14T11:37:00;93821.16;;;9.57;100.00
15050;BME280;7622;42.724;23.250;2023-12-14T11:39:30;93816.47;;;9.53;100.00
15050;BME280;7622;42.724;23.250;2023-12-14T11:42:00;93822.09;;;9.40;100.00
15050;BME280;7622;42.724;23.250;2023-12-14T11:44:27;93824.06;;;9.46;100.00
15050;BME280;7622;42.724;23.250;2023-12-14T11:46:56;93831.78;;;9.38;100.00
15050;BME280;7622;42.724;23.250;2023-12-14T11:49:24;93853.44;;;9.29;100.00
15050;BME280;7622;42.724;23.250;2023-12-14T11:51:52;93843.75;;;9.31;100.00
15050;BME280;7622;42.724;23.250;2023-12-14T11:54:19;93819.44;;;9.24;100.00
15050;BME280;7622;42.724;23.250;2023-12-14T11:56:47;93855.38;;;9.19;100.00
15050;BME280;7622;42.724;23.250;2023-12-14T11:59:15;93842.50;;;9.09;100.00
15050;BME280;7622;42.724;23.250;2023-12-14T12:01:55;93850.13;;;9.11;100.00
15050;BME280;7622;42.724;23.250;2023-12-14T12:04:22;93853.16;;;9.06;100.00
15050;BME280;7622;42.724;23.250;2023-12-14T12:06:49;93805.28;;;8.76;100.00
15050;BME280;7622;42.724;23.250;2023-12-14T12:09:37;93849.56;;;8.99;100.00
15050;BME280;7622;42.724;23.250;2023-12-14T12:12:08;93836.28;;;8.94;100.00
15050;BME280;7622;42.724;23.250;2023-12-14T12:14:36;93849.75;;;8.97;100.00
15050;BME280;7622;42.724;23.250;2023-12-14T12:17:06;93856.66;;;8.89;100.00
15050;BME280;7622;42.724;23.250;2023-12-14T12:19:34;93847.31;;;8.96;100.00
15050;BME280;7622;42.724;23.250;2023-12-14T12:22:01;93867.97;;;8.88;100.00
15050;BME280;7622;42.724;23.250;2023-12-14T12:24:28;93856.72;;;8.71;100.00
15050;BME280;7622;42.724;23.250;2023-12-14T12:26:55;93866.53;;;8.93;100.00
15050;BME280;7622;42.724;23.250;2023-12-14T12:29:22;93878.78;;;8.83;100.00
15050;BME280;7622;42.724;23.250;2023-12-14T12:31:49;93870.47;;;8.97;100.00
15050;BME280;7622;42.724;23.250;2023-12-14T12:34:18;93887.06;;;8.87;100.00
15050;BME280;7622;42.724;23.250;2023-12-14T12:36:45;93876.81;;;8.77;100.00
15050;BME280;7622;42.724;23.250;2023-12-14T12:39:12;93889.16;;;8.83;100.00
15050;BME280;7622;42.724;23.250;2023-12-14T12:41:38;93880.44;;;8.84;100.00
15050;BME280;7622;42.724;23.250;2023-12-14T12:44:05;93876.56;;;8.88;100.00
15050;BME280;7622;42.724;23.250;2023-12-14T12:46:33;93875.66;;;8.97;100.00
15050;BME280;7622;42.724;23.250;2023-12-14T12:49:01;93863.81;;;8.69;100.00
15050;BME280;7622;42.724;23.250;2023-12-14T12:51:31;93869.88;;;8.78;100.00
15050;BME280;7622;42.724;23.250;2023-12-14T12:53:58;93886.78;;;8.72;100.00
15050;BME280;7622;42.724;23.250;2023-12-14T12:56:25;93871.59;;;8.69;100.00
15050;BME280;7622;42.724;23.250;2023-12-14T12:58:52;93869.94;;;8.68;100.00